createdAt,value
2019-02-20T00:00:08.731Z,4.40
2019-02-20T00:02:35.217Z,4.45
2019-02-20T00:05:01.625Z,4.42
2019-02-20T00:07:28.006Z,5.95
2019-02-20T00:09:54.368Z,3.98
2019-02-20T00:12:20.782Z,4.00
2019-02-20T00:14:47.190Z,4.53
2019-02-20T00:17:13.805Z,4.35
2019-02-20T00:19:40.226Z,3.58
2019-02-20T00:22:06.521Z,3.17
2019-02-20T00:24:32.817Z,3.45
2019-02-20T00:26:59.232Z,3.90
2019-02-20T00:29:25.658Z,3.33
2019-02-20T00:31:52.101Z,3.70
2019-02-20T00:34:18.725Z,4.97
2019-02-20T00:36:47.665Z,4.72
2019-02-20T00:39:13.904Z,4.10
2019-02-20T00:41:40.421Z,4.10
2019-02-20T00:44:14.715Z,5.35
2019-02-20T00:46:42.914Z,5.37
2019-02-20T00:49:11.338Z,4.08
2019-02-20T00:51:39.786Z,3.60
2019-02-20T00:54:09.271Z,10.15
2019-02-20T00:56:35.506Z,5.35
2019-02-20T00:59:02.031Z,3.83
2019-02-20T01:01:28.573Z,4.47
2019-02-20T01:03:54.981Z,4.67
2019-02-20T01:06:21.393Z,4.33
2019-02-20T01:08:47.789Z,7.60
2019-02-20T01:11:14.223Z,4.25
2019-02-20T01:13:40.527Z,3.98
2019-02-20T01:16:07.069Z,5.00
2019-02-20T01:18:33.583Z,4.60
2019-02-20T01:21:00.093Z,5.78
2019-02-20T01:23:26.421Z,5.08
2019-02-20T01:25:52.717Z,4.70
2019-02-20T01:28:19.085Z,5.85
2019-02-20T01:30:45.345Z,4.90
2019-02-20T01:33:11.650Z,4.75
2019-02-20T01:35:38.064Z,4.80
2019-02-20T01:38:04.741Z,5.33
2019-02-20T01:40:31.284Z,4.20
2019-02-20T01:42:57.592Z,4.17
2019-02-20T01:45:24.010Z,4.92
2019-02-20T01:47:50.442Z,5.55
2019-02-20T01:50:16.836Z,3.40
2019-02-20T01:52:43.397Z,6.35
2019-02-20T01:55:09.697Z,4.85
2019-02-20T01:57:36.206Z,3.55
2019-02-20T02:00:05.149Z,3.55
2019-02-20T02:02:31.498Z,3.22
2019-02-20T02:04:57.906Z,6.97
2019-02-20T02:07:24.305Z,3.90
2019-02-20T02:09:50.608Z,6.65
2019-02-20T02:12:16.922Z,5.97
2019-02-20T02:14:43.448Z,3.80
2019-02-20T02:17:09.778Z,5.80
2019-02-20T02:19:36.188Z,6.45
2019-02-20T02:22:02.583Z,3.65
2019-02-20T02:24:28.934Z,5.83
2019-02-20T02:26:55.238Z,4.00
2019-02-20T02:29:21.668Z,4.92
2019-02-20T02:31:48.105Z,3.02
2019-02-20T02:34:14.506Z,4.15
2019-02-20T02:36:40.946Z,4.22
2019-02-20T02:39:07.342Z,3.27
2019-02-20T02:41:34.594Z,3.95
2019-02-20T02:44:00.992Z,3.77
2019-02-20T02:46:27.498Z,3.85
2019-02-20T02:48:53.797Z,4.17
2019-02-20T02:51:20.316Z,3.95
2019-02-20T02:53:49.679Z,6.45
2019-02-20T02:56:16.290Z,4.47
2019-02-20T02:58:42.709Z,4.15
2019-02-20T03:01:09.142Z,4.60
2019-02-20T03:03:35.653Z,5.92
2019-02-20T03:06:02.104Z,4.47
2019-02-20T03:08:28.410Z,4.35
2019-02-20T03:10:54.828Z,5.33
2019-02-20T03:13:21.469Z,4.42
2019-02-20T03:15:47.765Z,6.97
2019-02-20T03:18:14.194Z,6.03
2019-02-20T03:20:40.693Z,4.28
2019-02-20T03:23:06.995Z,5.10
2019-02-20T03:25:33.315Z,5.40
2019-02-20T03:27:59.738Z,4.00
2019-02-20T03:30:26.266Z,5.53
2019-02-20T03:32:52.689Z,4.17
2019-02-20T03:35:19.019Z,5.87
2019-02-20T03:37:45.441Z,4.53
2019-02-20T03:40:11.748Z,4.58
2019-02-20T03:42:38.658Z,4.72
2019-02-20T03:45:06.253Z,3.30
2019-02-20T03:47:32.559Z,6.65
2019-02-20T03:49:59.076Z,4.83
2019-02-20T03:52:25.378Z,3.87
2019-02-20T03:54:51.680Z,6.37
2019-02-20T03:57:18.212Z,4.72
2019-02-20T03:59:44.522Z,4.35
2019-02-20T04:02:11.037Z,3.35
2019-02-20T04:04:37.362Z,4.08
2019-02-20T04:07:03.872Z,5.85
2019-02-20T04:09:30.396Z,4.40
2019-02-20T04:11:57.032Z,3.47
2019-02-20T04:14:23.349Z,2.60
2019-02-20T04:16:49.668Z,4.45
2019-02-20T04:19:18.725Z,12.07
2019-02-20T04:21:45.045Z,12.55
2019-02-20T04:24:11.547Z,17.80
2019-02-20T04:26:38.737Z,10.88
2019-02-20T04:29:05.209Z,9.65
2019-02-20T04:31:31.697Z,23.95
2019-02-20T04:34:04.626Z,14.45
2019-02-20T04:36:31.107Z,8.53
2019-02-20T04:39:09.366Z,9.08
2019-02-20T04:41:35.986Z,8.83
2019-02-20T04:44:03.876Z,9.80
2019-02-20T04:46:30.302Z,9.98
2019-02-20T04:48:56.815Z,9.00
2019-02-20T04:51:23.613Z,10.50
2019-02-20T04:53:50.052Z,7.50
2019-02-20T04:56:16.949Z,14.85
2019-02-20T04:58:44.250Z,9.13
2019-02-20T05:01:11.032Z,6.37
2019-02-20T05:03:37.440Z,3.80
2019-02-20T05:06:03.882Z,7.20
2019-02-20T05:08:30.402Z,5.03
2019-02-20T05:10:56.908Z,5.15
2019-02-20T05:15:43.274Z,5.05
2019-02-20T05:18:09.709Z,4.15
2019-02-20T05:20:36.022Z,3.55
2019-02-20T05:23:02.426Z,6.28
2019-02-20T05:25:28.956Z,3.45
2019-02-20T05:27:55.460Z,3.85
2019-02-20T05:30:21.888Z,4.70
2019-02-20T05:32:49.542Z,17.37
2019-02-20T05:35:16.106Z,7.53
2019-02-20T05:37:42.549Z,5.08
2019-02-20T05:40:09.561Z,3.62
2019-02-20T05:42:36.006Z,5.35
2019-02-20T05:45:03.723Z,4.70
2019-02-20T05:47:30.145Z,4.85
2019-02-20T05:49:56.763Z,5.10
2019-02-20T05:52:23.169Z,3.17
2019-02-20T05:54:50.007Z,3.27
2019-02-20T05:57:16.423Z,8.88
2019-02-20T05:59:42.710Z,4.92
2019-02-20T06:02:09.148Z,4.47
2019-02-20T06:04:35.545Z,5.72
2019-02-20T06:07:01.969Z,3.80
2019-02-20T06:09:28.468Z,2.95
2019-02-20T06:11:55.537Z,4.20
2019-02-20T06:14:21.981Z,3.58
2019-02-20T06:16:48.387Z,4.83
2019-02-20T06:19:14.907Z,4.47
2019-02-20T06:21:41.673Z,1.92
2019-02-20T06:24:08.082Z,2.92
2019-02-20T06:26:34.402Z,2.45
2019-02-20T06:29:00.784Z,3.08
2019-02-20T06:31:27.515Z,2.72
2019-02-20T06:33:53.874Z,2.77
2019-02-20T06:36:20.177Z,4.25
2019-02-20T06:38:46.588Z,2.75
2019-02-20T06:41:13.006Z,3.83
2019-02-20T06:43:39.319Z,2.65
2019-02-20T06:46:06.316Z,2.87
2019-02-20T06:48:33.177Z,3.77
2019-02-20T06:50:59.490Z,2.52
2019-02-20T06:53:25.968Z,2.15
2019-02-20T06:55:52.318Z,4.03
2019-02-20T06:58:18.864Z,2.98
2019-02-20T07:00:45.202Z,4.03
2019-02-20T07:03:11.738Z,2.98
2019-02-20T07:05:39.549Z,2.92
2019-02-20T07:08:31.437Z,3.25
2019-02-20T07:11:04.681Z,2.60
2019-02-20T07:13:57.807Z,5.35
2019-02-20T07:16:37.127Z,5.87
2019-02-20T07:19:07.290Z,4.30
2019-02-20T07:21:55.477Z,6.75
2019-02-20T07:24:25.611Z,3.02
2019-02-20T07:26:59.070Z,2.87
2019-02-20T07:29:35.222Z,3.52
2019-02-20T07:32:01.739Z,6.40
2019-02-20T07:34:28.048Z,3.33
2019-02-20T07:36:54.361Z,2.58
2019-02-20T07:39:21.951Z,1.90
2019-02-20T07:41:48.273Z,3.17
2019-02-20T07:44:14.675Z,2.40
2019-02-20T07:46:41.213Z,3.05
2019-02-20T07:49:08.075Z,4.22
2019-02-20T07:51:34.463Z,2.60
2019-02-20T07:54:00.758Z,4.47
2019-02-20T07:56:27.069Z,1.55
2019-02-20T07:58:53.613Z,1.80
2019-02-20T08:01:19.939Z,2.25
2019-02-20T08:03:46.332Z,1.80
2019-02-20T08:06:12.732Z,3.12
2019-02-20T08:08:39.044Z,2.50
2019-02-20T08:11:05.676Z,2.27
2019-02-20T08:13:39.062Z,2.42
2019-02-20T08:16:00.313Z,1.62
2019-02-20T08:18:26.847Z,5.28
2019-02-20T08:20:53.229Z,1.85
2019-02-20T08:23:19.558Z,4.00
2019-02-20T08:25:45.863Z,3.27
2019-02-20T08:28:12.380Z,4.45
2019-02-20T08:30:38.899Z,2.80
2019-02-20T08:33:05.194Z,2.80
2019-02-20T08:35:31.930Z,3.77
2019-02-20T08:37:58.374Z,3.45
2019-02-20T08:40:24.676Z,3.90
2019-02-20T08:42:51.202Z,2.42
2019-02-20T08:45:17.839Z,2.33
2019-02-20T08:47:44.736Z,2.58
2019-02-20T08:50:12.538Z,3.92
2019-02-20T08:52:38.837Z,5.72
2019-02-20T08:55:08.057Z,1.87
2019-02-20T08:57:34.449Z,1.65
2019-02-20T09:00:00.877Z,1.82
2019-02-20T09:02:27.277Z,1.72
2019-02-20T09:04:54.839Z,1.82
2019-02-20T09:07:21.468Z,2.77
2019-02-20T09:09:47.762Z,2.47
2019-02-20T09:12:14.302Z,2.80
2019-02-20T09:14:41.121Z,2.17
2019-02-20T09:17:08.632Z,4.05
2019-02-20T09:19:35.104Z,4.35
2019-02-20T09:22:01.474Z,4.40
2019-02-20T09:24:28.492Z,2.65
2019-02-20T09:26:54.784Z,3.60
2019-02-20T09:29:21.199Z,2.65
2019-02-20T09:31:47.840Z,3.30
2019-02-20T09:34:14.534Z,3.47
2019-02-20T09:36:41.168Z,2.40
2019-02-20T09:39:30.517Z,2.52
2019-02-20T09:41:57.369Z,2.50
2019-02-20T09:44:23.919Z,2.35
2019-02-20T09:46:50.334Z,2.65
2019-02-20T09:49:16.966Z,2.87
2019-02-20T09:51:43.379Z,2.08
2019-02-20T09:54:09.694Z,2.60
2019-02-20T09:56:36.343Z,2.45
2019-02-20T09:59:02.744Z,2.70
2019-02-20T10:01:29.293Z,1.92
2019-02-20T10:03:55.593Z,2.37
2019-02-20T10:06:21.926Z,1.85
2019-02-20T10:08:48.337Z,1.70
2019-02-20T10:11:15.070Z,1.98
2019-02-20T10:13:41.770Z,1.72
2019-02-20T10:16:08.223Z,2.00
2019-02-20T10:18:34.694Z,1.22
2019-02-20T10:21:01.249Z,2.02
2019-02-20T10:23:28.100Z,1.62
2019-02-20T10:26:00.862Z,4.42
2019-02-20T10:28:22.709Z,1.67
2019-02-20T10:30:49.252Z,3.72
2019-02-20T10:33:18.471Z,1.60
2019-02-20T10:35:45.181Z,2.08
2019-02-20T10:38:14.739Z,1.45
2019-02-20T10:40:41.265Z,2.08
2019-02-20T10:43:08.303Z,1.77
2019-02-20T10:45:34.737Z,1.77
2019-02-20T10:48:01.173Z,1.77
2019-02-20T10:50:27.562Z,2.33
2019-02-20T10:52:53.994Z,2.58
2019-02-20T10:55:20.910Z,4.12
2019-02-20T10:57:47.429Z,1.98
2019-02-20T11:00:25.609Z,3.87
2019-02-20T11:02:53.721Z,2.83
2019-02-20T11:05:21.138Z,4.87
2019-02-20T11:07:47.672Z,4.78
2019-02-20T11:10:14.192Z,4.83
2019-02-20T11:12:40.593Z,3.90
2019-02-20T11:15:07.181Z,5.67
2019-02-20T11:17:34.033Z,5.03
2019-02-20T11:20:00.453Z,13.55
2019-02-20T11:22:27.002Z,6.97
2019-02-20T11:24:53.885Z,6.53
2019-02-20T11:27:20.531Z,6.65
2019-02-20T11:29:47.058Z,8.20
2019-02-20T11:32:13.486Z,7.78
2019-02-20T11:34:39.809Z,9.45
2019-02-20T11:37:06.221Z,6.85
2019-02-20T11:39:37.639Z,5.10
2019-02-20T11:42:01.079Z,24.87
2019-02-20T11:44:27.483Z,15.10
2019-02-20T11:46:54.714Z,18.07
2019-02-20T11:49:21.556Z,13.20
2019-02-20T11:51:48.230Z,18.90
2019-02-20T11:54:15.328Z,10.80
2019-02-20T11:56:41.905Z,11.70
2019-02-20T11:59:08.337Z,9.33
2019-02-20T12:01:35.239Z,9.78
2019-02-20T12:04:01.705Z,10.68
2019-02-20T12:06:28.112Z,4.95
2019-02-20T12:08:55.625Z,8.45
2019-02-20T12:11:22.554Z,8.05
2019-02-20T12:13:53.788Z,7.33
2019-02-20T12:16:20.706Z,7.92
2019-02-20T12:18:47.045Z,3.83
2019-02-20T12:21:13.537Z,6.05
2019-02-20T12:23:40.341Z,4.22
2019-02-20T12:26:06.862Z,4.12
2019-02-20T12:28:33.418Z,2.75
2019-02-20T12:30:59.930Z,4.67
2019-02-20T12:33:26.218Z,7.00
2019-02-20T12:35:52.642Z,9.18
2019-02-20T12:38:18.947Z,5.65
2019-02-20T12:40:46.372Z,2.72
2019-02-20T12:43:12.768Z,7.05
2019-02-20T12:45:39.178Z,4.45
2019-02-20T12:48:05.710Z,4.10
2019-02-20T12:50:35.089Z,3.22
2019-02-20T12:53:01.533Z,2.20
2019-02-20T12:55:28.041Z,1.85
2019-02-20T12:57:54.649Z,4.65
2019-02-20T13:00:22.389Z,4.40
2019-02-20T13:02:48.699Z,4.22
2019-02-20T13:05:15.402Z,2.83
2019-02-20T13:07:42.017Z,3.50
2019-02-20T13:10:08.879Z,4.75
2019-02-20T13:12:35.309Z,4.55
2019-02-20T13:15:01.840Z,2.12
2019-02-20T13:17:29.629Z,2.67
2019-02-20T13:19:56.836Z,1.17
2019-02-20T13:22:23.439Z,3.47
2019-02-20T13:24:50.705Z,1.45
2019-02-20T13:27:22.846Z,1.12
2019-02-20T13:29:45.259Z,1.95
2019-02-20T13:32:11.702Z,1.60
2019-02-20T13:34:38.105Z,2.77
2019-02-20T13:37:04.669Z,1.35
2019-02-20T13:39:30.947Z,1.30
2019-02-20T13:41:57.381Z,3.75
2019-02-20T13:44:23.857Z,2.00
2019-02-20T13:46:50.805Z,11.43
2019-02-20T13:49:18.047Z,13.90
2019-02-20T13:51:44.580Z,7.47
2019-02-20T13:54:11.112Z,5.70
2019-02-20T13:56:37.499Z,6.42
2019-02-20T13:59:04.143Z,6.80
2019-02-20T14:01:30.667Z,7.42
2019-02-20T14:03:57.175Z,5.58
2019-02-20T14:06:23.613Z,4.20
2019-02-20T14:08:50.218Z,5.65
2019-02-20T14:11:16.629Z,4.08
2019-02-20T14:13:43.046Z,5.80
2019-02-20T14:16:09.587Z,4.30
2019-02-20T14:18:36.129Z,4.90
2019-02-20T14:21:02.689Z,4.50
2019-02-20T14:23:29.775Z,2.70
2019-02-20T14:25:56.401Z,3.55
2019-02-20T14:28:22.994Z,8.80
2019-02-20T14:30:49.495Z,4.00
2019-02-20T14:33:16.071Z,3.45
2019-02-20T14:35:42.689Z,2.62
2019-02-20T14:38:09.301Z,4.47
2019-02-20T14:40:35.942Z,2.72
2019-02-20T14:43:02.345Z,3.52
2019-02-20T14:45:28.642Z,2.80
2019-02-20T14:47:54.956Z,2.80
2019-02-20T14:50:21.247Z,5.12
2019-02-20T14:52:47.585Z,5.35
2019-02-20T14:55:13.992Z,9.33
2019-02-20T14:57:40.420Z,2.50
2019-02-20T15:00:10.841Z,3.27
2019-02-20T15:02:37.243Z,2.47
2019-02-20T15:05:05.315Z,3.90
2019-02-20T15:07:33.820Z,3.37
2019-02-20T15:10:00.300Z,1.52
2019-02-20T15:12:26.629Z,2.87
2019-02-20T15:14:53.045Z,2.52
2019-02-20T15:17:19.473Z,4.40
2019-02-20T15:19:46.082Z,2.15
2019-02-20T15:22:12.720Z,2.58
2019-02-20T15:24:39.044Z,2.20
2019-02-20T15:27:06.314Z,1.67
2019-02-20T15:29:33.031Z,2.95
2019-02-20T15:31:59.323Z,1.62
2019-02-20T15:34:25.953Z,2.20
2019-02-20T15:36:52.273Z,1.75
2019-02-20T15:39:18.673Z,1.57
2019-02-20T15:41:45.213Z,2.98
2019-02-20T15:44:11.608Z,1.60
2019-02-20T15:46:38.012Z,2.00
2019-02-20T15:49:04.943Z,2.00
2019-02-20T15:51:31.828Z,1.22
2019-02-20T15:53:58.153Z,1.80
2019-02-20T15:56:24.569Z,2.08
2019-02-20T15:58:51.083Z,3.98
2019-02-20T16:01:17.502Z,1.92
2019-02-20T16:03:44.152Z,3.17
2019-02-20T16:06:10.879Z,2.90
2019-02-20T16:08:38.172Z,2.17
2019-02-20T16:11:04.596Z,0.88
2019-02-20T16:13:30.970Z,2.27
2019-02-20T16:15:57.276Z,2.52
2019-02-20T16:18:23.708Z,2.33
2019-02-20T16:20:50.037Z,1.90
2019-02-20T16:23:16.547Z,2.30
2019-02-20T16:25:44.711Z,3.37
2019-02-20T16:28:11.086Z,1.87
2019-02-20T16:30:37.814Z,3.60
2019-02-20T16:33:04.241Z,2.60
2019-02-20T16:35:30.629Z,2.75
2019-02-20T16:37:57.056Z,5.03
2019-02-20T16:40:23.458Z,2.00
2019-02-20T16:42:57.385Z,1.67
2019-02-20T16:45:24.209Z,3.00
2019-02-20T16:47:51.001Z,2.17
2019-02-20T16:50:17.355Z,2.72
2019-02-20T16:52:43.665Z,3.17
2019-02-20T16:55:10.297Z,2.05
2019-02-20T16:57:36.824Z,2.58
2019-02-20T17:00:06.089Z,3.77
2019-02-20T17:02:32.375Z,4.00
2019-02-20T17:04:59.289Z,1.55
2019-02-20T17:07:27.514Z,1.55
2019-02-20T17:09:54.013Z,5.90
2019-02-20T17:12:20.798Z,1.57
2019-02-20T17:14:47.234Z,6.05
2019-02-20T17:17:13.763Z,0.88
2019-02-20T17:19:40.289Z,1.60
2019-02-20T17:22:06.811Z,1.47
2019-02-20T17:24:33.470Z,1.42
2019-02-20T17:27:00.889Z,2.35
2019-02-20T17:29:27.623Z,9.48
2019-02-20T17:31:54.451Z,6.67
2019-02-20T17:34:20.971Z,4.08
2019-02-20T17:36:49.294Z,4.35
2019-02-20T17:39:16.018Z,1.98
2019-02-20T17:41:42.434Z,1.57
2019-02-20T17:44:09.066Z,1.77
2019-02-20T17:46:35.881Z,3.45
2019-02-20T17:49:02.694Z,2.45
2019-02-20T17:51:29.327Z,2.00
2019-02-20T17:53:56.147Z,3.55
2019-02-20T17:56:22.684Z,1.90
2019-02-20T17:58:49.184Z,2.05
2019-02-20T18:01:16.394Z,1.42
2019-02-20T18:03:43.137Z,2.92
2019-02-20T18:06:09.757Z,1.50
2019-02-20T18:08:36.398Z,1.60
2019-02-20T18:11:03.075Z,2.30
2019-02-20T18:13:29.743Z,2.08
2019-02-20T18:15:56.266Z,2.25
2019-02-20T18:18:22.953Z,2.25
2019-02-20T18:20:49.372Z,4.05
2019-02-20T18:23:15.869Z,2.33
2019-02-20T18:25:42.290Z,2.20
2019-02-20T18:28:08.707Z,2.60
2019-02-20T18:30:35.219Z,2.95
2019-02-20T18:33:01.864Z,1.62
2019-02-20T18:35:28.162Z,1.10
2019-02-20T18:37:54.678Z,1.60
2019-02-20T18:40:21.181Z,3.90
2019-02-20T18:42:47.723Z,1.65
2019-02-20T18:45:14.430Z,2.45
2019-02-20T18:47:42.343Z,3.25
2019-02-20T18:50:13.134Z,2.33
2019-02-20T18:52:39.442Z,4.80
2019-02-20T18:55:16.190Z,3.00
2019-02-20T18:57:42.547Z,2.47
2019-02-20T19:00:13.463Z,3.65
2019-02-20T19:02:40.311Z,3.00
2019-02-20T19:05:08.111Z,1.55
2019-02-20T19:07:34.865Z,2.58
2019-02-20T19:10:02.018Z,2.02
2019-02-20T19:12:35.562Z,2.58
2019-02-20T19:15:22.414Z,2.22
2019-02-20T19:18:11.190Z,2.12
2019-02-20T19:20:41.591Z,2.45
2019-02-20T19:23:28.559Z,2.35
2019-02-20T19:26:13.765Z,2.60
2019-02-20T19:28:44.526Z,3.55
2019-02-20T19:31:34.826Z,4.40
2019-02-20T19:34:20.146Z,1.45
2019-02-20T19:37:06.892Z,1.77
2019-02-20T19:39:49.169Z,2.25
2019-02-20T19:42:22.123Z,2.50
2019-02-20T19:45:19.353Z,2.85
2019-02-20T19:48:06.534Z,3.75
2019-02-20T19:50:48.894Z,1.85
2019-02-20T19:53:21.974Z,1.52
2019-02-20T19:56:09.051Z,2.90
2019-02-20T19:59:03.449Z,2.33
2019-02-20T20:01:51.760Z,4.78
2019-02-20T20:04:21.885Z,2.87
2019-02-20T20:07:21.337Z,2.85
2019-02-20T20:10:08.065Z,2.80
2019-02-20T20:13:05.938Z,1.67
2019-02-20T20:15:42.293Z,2.12
2019-02-20T20:18:31.862Z,2.37
2019-02-20T20:21:10.938Z,3.45
2019-02-20T20:23:50.129Z,2.20
2019-02-20T20:26:36.982Z,4.78
2019-02-20T20:29:39.154Z,2.37
2019-02-20T20:32:18.704Z,2.22
2019-02-20T20:35:05.614Z,2.02
2019-02-20T20:37:35.811Z,2.27
2019-02-20T20:40:12.046Z,2.98
2019-02-20T20:42:42.333Z,2.08
2019-02-20T20:45:32.068Z,8.88
2019-02-20T20:48:35.189Z,5.40
2019-02-20T20:51:11.244Z,10.65
2019-02-20T20:53:56.667Z,8.13
2019-02-20T20:56:32.427Z,5.60
2019-02-20T20:59:17.708Z,3.10
2019-02-20T21:01:55.255Z,6.60
2019-02-20T21:04:31.705Z,5.92
2019-02-20T21:07:16.849Z,5.47
2019-02-20T21:09:56.098Z,3.25
2019-02-20T21:12:58.369Z,4.97
2019-02-20T21:15:34.157Z,4.92
2019-02-20T21:18:13.103Z,6.28
2019-02-20T21:20:52.435Z,4.35
2019-02-20T21:23:45.697Z,8.45
2019-02-20T21:26:33.951Z,5.40
2019-02-20T21:29:10.227Z,8.18
2019-02-20T21:32:01.840Z,3.17
2019-02-20T21:34:51.670Z,4.30
2019-02-20T21:37:38.344Z,4.08
2019-02-20T21:40:11.213Z,4.42
2019-02-20T21:42:50.525Z,6.22
2019-02-20T21:45:23.426Z,7.12
2019-02-20T21:48:13.471Z,4.40
2019-02-20T21:50:43.593Z,5.58
2019-02-20T21:53:25.157Z,8.25
2019-02-20T21:55:55.350Z,3.37
2019-02-20T21:58:33.196Z,3.52
2019-02-20T22:01:15.900Z,4.20
2019-02-20T22:03:55.206Z,4.22
2019-02-20T22:06:37.582Z,5.10
2019-02-20T22:09:10.448Z,3.98
2019-02-20T22:11:58.949Z,2.70
2019-02-20T22:14:34.811Z,3.08
2019-02-20T22:17:13.909Z,3.90
2019-02-20T22:20:03.549Z,3.30
2019-02-20T22:22:33.705Z,3.92
2019-02-20T22:25:23.513Z,4.92
2019-02-20T22:27:59.585Z,3.65
2019-02-20T22:31:03.143Z,4.22
2019-02-20T22:33:33.368Z,3.37
2019-02-20T22:36:21.444Z,2.45
2019-02-20T22:38:51.599Z,3.08
2019-02-20T22:41:51.589Z,4.85
2019-02-20T22:44:44.502Z,2.75
2019-02-20T22:47:17.895Z,6.30
2019-02-20T22:49:50.824Z,4.33
2019-02-20T22:52:23.930Z,3.35
2019-02-20T22:55:00.100Z,3.70
2019-02-20T22:57:39.276Z,2.90
2019-02-20T23:00:51.375Z,3.02
2019-02-20T23:03:39.145Z,3.50
2019-02-20T23:06:24.442Z,4.08
2019-02-20T23:08:57.671Z,4.30
2019-02-20T23:11:47.793Z,3.40
2019-02-20T23:14:42.496Z,4.67
2019-02-20T23:17:08.824Z,6.47
2019-02-20T23:19:35.171Z,6.55
2019-02-20T23:22:01.473Z,2.85
2019-02-20T23:24:27.910Z,4.95
2019-02-20T23:26:54.434Z,3.20
2019-02-20T23:29:20.712Z,3.33
2019-02-20T23:31:47.287Z,2.85
2019-02-20T23:34:13.537Z,3.05
2019-02-20T23:36:40.171Z,4.58
2019-02-20T23:39:06.468Z,4.30
2019-02-20T23:41:32.894Z,3.47
2019-02-20T23:43:59.395Z,3.17
2019-02-20T23:46:25.694Z,3.72
2019-02-20T23:48:52.128Z,4.30
2019-02-20T23:51:18.972Z,3.22
2019-02-20T23:53:45.257Z,3.90
2019-02-20T23:56:11.657Z,3.62
2019-02-20T23:58:38.233Z,9.50
